createdAt,value
2022-08-02T00:00:01.146Z,4.5
2022-08-02T00:05:01.079Z,5.1
2022-08-02T00:15:01.216Z,5.3
2022-08-02T00:20:01.152Z,5.4
2022-08-02T00:25:01.078Z,5.1
2022-08-02T00:30:01.166Z,5.1
2022-08-02T00:35:01.077Z,4.9
2022-08-02T00:40:01.157Z,4.5
2022-08-02T00:45:01.079Z,4.4
2022-08-02T00:50:01.147Z,4.6
2022-08-02T00:55:01.081Z,4.5
2022-08-02T01:00:01.148Z,4.9
2022-08-02T01:15:01.146Z,5.0
2022-08-02T01:20:01.189Z,5.1
2022-08-02T01:35:01.088Z,4.2
2022-08-02T01:40:01.123Z,3.6
2022-08-02T01:45:01.036Z,4.1
2022-08-02T01:50:01.082Z,4.3
2022-08-02T01:55:01.030Z,4.4
2022-08-02T02:00:01.579Z,4.9
2022-08-02T02:05:06.022Z,5.2
2022-08-02T02:10:01.103Z,5.8
2022-08-02T02:15:01.039Z,6.9
2022-08-02T02:30:01.155Z,7.8
2022-08-02T02:35:01.008Z,7.6
2022-08-02T02:40:01.082Z,6.3
2022-08-02T02:45:01.010Z,6.8
2022-08-02T02:50:01.149Z,6.5
2022-08-02T02:55:01.011Z,6.4
2022-08-02T03:00:01.075Z,6.1
2022-08-02T03:05:01.008Z,6.2
2022-08-02T03:10:01.077Z,5.5
2022-08-02T03:15:01.017Z,5.4
2022-08-02T03:20:01.140Z,4.6
2022-08-02T03:25:01.008Z,4.2
2022-08-02T03:30:01.078Z,4.2
2022-08-02T03:35:01.020Z,4.6
2022-08-02T03:40:01.078Z,4.2
2022-08-02T03:45:03.812Z,4.6
2022-08-02T03:50:01.142Z,4.4
2022-08-02T03:55:01.016Z,4.5
2022-08-02T04:00:01.154Z,4.8
2022-08-02T04:05:01.021Z,5.5
2022-08-02T04:10:01.088Z,5.1
2022-08-02T04:15:01.010Z,5.3
2022-08-02T04:20:01.080Z,5.5
2022-08-02T04:25:01.012Z,4.7
2022-08-02T04:30:01.146Z,4.0
2022-08-02T04:55:01.441Z,3.0
2022-08-02T05:00:01.358Z,2.6
2022-08-02T05:05:01.288Z,3.4
2022-08-02T05:10:01.355Z,3.3
2022-08-02T05:15:01.283Z,4.4
2022-08-02T05:20:01.382Z,5.6
2022-08-02T05:25:01.343Z,6.2
2022-08-02T05:30:01.409Z,6.6
2022-08-02T05:35:01.274Z,7.0
2022-08-02T05:40:01.381Z,6.0
2022-08-02T05:45:01.271Z,5.7
2022-08-02T05:50:01.337Z,5.9
2022-08-02T05:55:01.268Z,5.8
2022-08-02T06:00:02.771Z,6.0
2022-08-02T06:05:01.259Z,6.6
2022-08-02T06:10:01.398Z,6.7
2022-08-02T06:15:01.261Z,6.8
2022-08-02T06:20:01.318Z,6.3
2022-08-02T06:25:01.249Z,7.1
2022-08-02T06:30:01.309Z,6.3
2022-08-02T06:35:01.255Z,6.0
2022-08-02T06:40:01.404Z,5.9
2022-08-02T06:45:01.293Z,5.8
2022-08-02T06:50:01.413Z,4.6
2022-08-02T06:55:01.235Z,5.2
2022-08-02T07:00:01.294Z,4.6
2022-08-02T07:05:01.223Z,4.4
2022-08-02T07:10:01.932Z,4.3
2022-08-02T07:15:01.227Z,4.1
2022-08-02T07:20:01.286Z,4.0
2022-08-02T07:25:01.238Z,4.2
2022-08-02T07:30:01.339Z,4.2
2022-08-02T07:35:01.508Z,4.4
2022-08-02T07:40:01.356Z,4.8
2022-08-02T07:45:01.205Z,4.4
2022-08-02T07:50:01.271Z,4.3
2022-08-02T07:55:01.305Z,4.4
2022-08-02T08:00:01.379Z,4.4
2022-08-02T08:10:01.313Z,5.2
2022-08-02T08:15:01.186Z,5.0
2022-08-02T08:20:01.320Z,4.9
2022-08-02T08:25:01.171Z,5.2
2022-08-02T08:30:01.169Z,5.0
2022-08-02T08:35:01.163Z,4.7
2022-08-02T08:40:01.226Z,5.3
2022-08-02T08:45:01.244Z,4.8
2022-08-02T08:50:01.226Z,4.4
2022-08-02T08:55:01.154Z,4.0
2022-08-02T09:00:02.176Z,3.8
2022-08-02T09:05:01.148Z,3.1
2022-08-02T09:10:01.273Z,3.2
2022-08-02T09:25:01.275Z,3.0
2022-08-02T09:30:09.713Z,2.7
2022-08-02T09:35:01.127Z,3.8
2022-08-02T09:40:01.196Z,3.4
2022-08-02T09:45:01.130Z,3.3
2022-08-02T10:00:01.214Z,3.0
2022-08-02T10:05:01.150Z,2.6
2022-08-02T10:10:01.283Z,2.5
2022-08-02T10:15:01.491Z,2.5
2022-08-02T10:25:01.307Z,2.9
2022-08-02T10:30:01.258Z,2.9
2022-08-02T10:40:01.281Z,3.2
2022-08-02T10:50:01.345Z,3.5
2022-08-02T11:00:01.228Z,3.4
2022-08-02T11:05:01.166Z,3.7
2022-08-02T11:10:01.405Z,3.3
2022-08-02T11:25:01.671Z,2.6
2022-08-02T11:45:01.082Z,3.0
2022-08-02T11:50:01.074Z,2.6
2022-08-02T11:55:01.006Z,3.2
2022-08-02T12:00:02.192Z,3.3
2022-08-02T12:05:01.006Z,3.5
2022-08-02T12:10:01.071Z,3.3
2022-08-02T12:15:01.007Z,3.6
2022-08-02T12:20:01.110Z,3.4
2022-08-02T12:25:01.051Z,3.3
2022-08-02T12:30:01.072Z,2.8
2022-08-02T12:40:01.202Z,2.7
2022-08-02T12:55:00.996Z,3.4
2022-08-02T13:00:01.034Z,2.7
2022-08-02T13:05:00.906Z,2.8
2022-08-02T13:15:01.035Z,3.0
2022-08-02T13:20:01.036Z,2.7
2022-08-02T13:30:01.177Z,2.7
2022-08-02T13:35:00.949Z,2.8
2022-08-02T13:40:20.345Z,2.2
2022-08-02T13:45:01.215Z,2.2
2022-08-02T13:50:01.063Z,2.4
2022-08-02T14:00:01.010Z,2.2
2022-08-02T14:05:00.934Z,3.0
2022-08-02T14:10:01.046Z,2.8
2022-08-02T14:15:01.939Z,3.0
2022-08-02T14:20:00.974Z,3.8
2022-08-02T14:25:09.227Z,4.2
2022-08-02T14:30:00.992Z,3.9
2022-08-02T14:35:00.909Z,4.4
2022-08-02T14:40:01.367Z,4.6
2022-08-02T14:45:00.919Z,3.9
2022-08-02T14:50:01.060Z,4.1
2022-08-02T14:55:01.071Z,4.2
2022-08-02T15:00:00.982Z,3.8
2022-08-02T15:05:00.913Z,3.4
2022-08-02T15:10:01.055Z,3.1
2022-08-02T15:15:00.922Z,3.0
2022-08-02T15:20:03.066Z,3.4
2022-08-02T15:25:00.896Z,3.9
2022-08-02T15:30:01.105Z,4.5
2022-08-02T15:35:01.225Z,5.2
2022-08-02T15:45:00.981Z,5.4
2022-08-02T15:50:01.054Z,6.2
2022-08-02T15:55:06.663Z,6.5
2022-08-02T16:00:01.050Z,6.5
2022-08-02T16:05:00.963Z,7.0
2022-08-02T16:10:00.994Z,6.8
2022-08-02T16:15:00.918Z,6.6
2022-08-02T16:20:01.075Z,7.3
2022-08-02T16:25:00.918Z,8.4
2022-08-02T16:30:01.055Z,8.8
2022-08-02T16:35:09.117Z,9.3
2022-08-02T16:40:01.026Z,10.3
2022-08-02T16:45:00.927Z,9.3
2022-08-02T16:50:04.269Z,9.1
2022-08-02T16:55:01.049Z,8.1
2022-08-02T17:00:01.047Z,7.8
2022-08-02T17:05:00.991Z,7.3
2022-08-02T17:10:01.777Z,7.9
2022-08-02T17:15:05.487Z,7.6
2022-08-02T17:20:01.069Z,8.6
2022-08-02T17:30:01.056Z,8.2
2022-08-02T17:35:03.738Z,8.0
2022-08-02T17:40:02.165Z,7.8
2022-08-02T17:45:07.208Z,7.5
2022-08-02T17:50:01.114Z,7.3
2022-08-02T17:55:00.921Z,7.4
2022-08-02T18:00:03.840Z,7.0
2022-08-02T18:05:00.989Z,7.4
2022-08-02T18:10:02.203Z,7.2
2022-08-02T18:15:00.922Z,7.4
2022-08-02T18:20:06.027Z,7.5
2022-08-02T18:25:00.952Z,8.0
2022-08-02T18:30:04.668Z,8.6
2022-08-02T18:35:00.924Z,10.2
2022-08-02T18:40:00.999Z,11.9
2022-08-02T18:45:00.923Z,12.8
2022-08-02T18:50:01.074Z,14.2
2022-08-02T18:55:00.969Z,16.1
2022-08-02T19:00:01.064Z,16.8
2022-08-02T19:05:00.987Z,17.4
2022-08-02T19:10:00.988Z,17.6
2022-08-02T19:15:00.924Z,18.3
2022-08-02T19:20:01.053Z,17.0
2022-08-02T19:25:01.598Z,17.5
2022-08-02T19:30:02.171Z,18.3
2022-08-02T19:35:00.969Z,18.9
2022-08-02T19:40:01.193Z,18.6
2022-08-02T19:45:00.931Z,19.0
2022-08-02T19:50:02.172Z,18.4
2022-08-02T19:55:59.122Z,18.0
2022-08-02T20:00:00.917Z,18.4
2022-08-02T20:05:00.927Z,18.7
2022-08-02T20:10:01.061Z,18.8
2022-08-02T20:15:00.926Z,19.8
2022-08-02T20:20:01.105Z,19.4
2022-08-02T20:25:00.925Z,20.0
2022-08-02T20:30:00.993Z,20.1
2022-08-02T20:35:00.930Z,20.7
2022-08-02T20:40:01.040Z,20.2
2022-08-02T20:45:00.927Z,20.3
2022-08-02T20:50:01.093Z,20.1
2022-08-02T20:55:00.944Z,20.5
2022-08-02T21:00:01.000Z,21.7
2022-08-02T21:05:00.933Z,22.6
2022-08-02T21:10:01.059Z,23.3
2022-08-02T21:15:00.935Z,23.0
2022-08-02T21:20:01.002Z,23.8
2022-08-02T21:25:00.936Z,22.2
2022-08-02T21:30:01.120Z,21.8
2022-08-02T21:35:00.980Z,22.8
2022-08-02T21:40:01.060Z,24.3
2022-08-02T21:45:00.939Z,23.4
2022-08-02T21:50:09.957Z,23.6
2022-08-02T21:55:00.959Z,23.1
2022-08-02T22:00:01.002Z,21.8
2022-08-02T22:05:01.985Z,20.0
2022-08-02T22:10:01.002Z,21.1
2022-08-02T22:15:01.971Z,20.4
2022-08-02T22:20:01.091Z,20.2
2022-08-02T22:25:00.933Z,20.6
2022-08-02T22:30:01.073Z,21.3
2022-08-02T22:35:00.932Z,19.9
2022-08-02T22:40:06.200Z,20.1
2022-08-02T22:45:05.934Z,20.2
2022-08-02T22:50:01.071Z,19.7
2022-08-02T22:55:00.979Z,19.5
2022-08-02T23:00:01.079Z,19.9
2022-08-02T23:05:00.976Z,19.7
2022-08-02T23:10:01.041Z,19.4
2022-08-02T23:15:00.993Z,18.6
2022-08-02T23:20:01.022Z,17.4
2022-08-02T23:25:00.955Z,16.5
2022-08-02T23:30:01.067Z,16.2
2022-08-02T23:35:00.948Z,15.2
2022-08-02T23:40:01.073Z,15.0
2022-08-02T23:45:00.954Z,15.6
2022-08-02T23:55:01.024Z,15.7
